Time;durP1;ratioP1;P1;durP2;ratioP2;P2;SDS_P1;SDS_P2;PMS_P1;PMS_P2;Temp;Humidity;BMP_temperature;BMP_pressure;BME280_temperature;BME280_humidity;BME280_pressure;Samples;Min_cycle;Max_cycle;Signal;HPM_P1;HPM_P2
2022/03/23 00:01:25;;;;;;;45.10;24.17;;;6.20;99.90;;;;;;5094542;28;20048;-88
2022/03/23 00:03:50;;;;;;;44.03;24.03;;;6.20;99.90;;;;;;5095236;28;20487;-88
2022/03/23 00:06:17;;;;;;;41.13;23.27;;;6.20;99.90;;;;;;5093992;28;20391;-88
2022/03/23 00:08:44;;;;;;;40.73;23.23;;;6.20;99.90;;;;;;5093500;28;20119;-88
2022/03/23 00:11:09;;;;;;;44.30;23.90;;;6.10;99.90;;;;;;5095142;28;20062;-88
2022/03/23 00:13:35;;;;;;;43.30;23.03;;;6.10;99.90;;;;;;5095185;28;20044;-88
2022/03/23 00:16:01;;;;;;;44.20;24.00;;;6.00;99.90;;;;;;5093262;28;20403;-88
2022/03/23 00:18:26;;;;;;;45.90;24.40;;;6.00;99.90;;;;;;5094719;28;20403;-88
2022/03/23 00:20:52;;;;;;;45.73;24.77;;;6.00;99.90;;;;;;5095428;28;20048;-88
2022/03/23 00:23:17;;;;;;;46.83;23.47;;;6.00;99.90;;;;;;5092821;28;20052;-88
2022/03/23 00:25:43;;;;;;;43.70;23.03;;;6.00;99.90;;;;;;5094933;28;20047;-87
2022/03/23 00:28:09;;;;;;;44.60;23.77;;;5.90;99.90;;;;;;5094225;28;20380;-88
2022/03/23 00:30:35;;;;;;;44.87;24.23;;;5.90;99.90;;;;;;5094934;28;20118;-88
2022/03/23 00:33:02;;;;;;;45.73;24.33;;;5.90;99.90;;;;;;5094803;28;20114;-88
2022/03/23 00:35:32;;;;;;;44.33;23.50;;;5.80;99.90;;;;;;5092481;28;20127;-88
2022/03/23 00:37:58;;;;;;;42.73;23.00;;;5.80;99.90;;;;;;5094328;28;20090;-88
2022/03/23 00:40:25;;;;;;;43.03;23.57;;;6.00;99.90;;;;;;5094307;28;20047;-88
2022/03/23 00:42:51;;;;;;;41.23;22.93;;;5.70;99.90;;;;;;5092434;28;20040;-88
2022/03/23 00:45:17;;;;;;;42.97;23.97;;;5.70;99.90;;;;;;5094104;28;20120;-89
2022/03/23 00:47:43;;;;;;;41.37;22.83;;;5.70;99.90;;;;;;5093342;28;20528;-88
2022/03/23 00:50:09;;;;;;;41.23;23.63;;;5.70;99.90;;;;;;5094031;28;20052;-88
2022/03/23 00:52:37;;;;;;;43.90;23.70;;;5.60;99.90;;;;;;5093240;28;20089;-88
2022/03/23 00:55:04;;;;;;;43.00;23.13;;;5.60;99.90;;;;;;5093486;28;20101;-88
2022/03/23 00:57:29;;;;;;;44.43;24.47;;;5.60;99.90;;;;;;5092831;28;20035;-88
2022/03/23 00:59:58;;;;;;;46.03;24.07;;;5.50;99.90;;;;;;5092751;28;20376;-88
2022/03/23 01:02:23;;;;;;;43.97;24.10;;;5.50;99.90;;;;;;5094368;28;20055;-88
2022/03/23 01:04:49;;;;;;;44.20;23.63;;;6.40;99.90;;;;;;5092393;28;20452;-88
2022/03/23 01:07:15;;;;;;;46.83;23.87;;;5.40;99.90;;;;;;5094635;28;20122;-88
2022/03/23 01:09:40;;;;;;;44.63;22.73;;;5.30;99.90;;;;;;5094255;28;20055;-88
2022/03/23 01:12:06;;;;;;;39.90;23.03;;;5.30;99.90;;;;;;5093441;28;20433;-88
2022/03/23 01:14:32;;;;;;;44.00;23.97;;;5.40;99.90;;;;;;5092489;28;20048;-87
2022/03/23 01:16:57;;;;;;;41.83;22.77;;;5.30;99.90;;;;;;5094072;28;20044;-88
2022/03/23 01:19:25;;;;;;;42.97;23.30;;;5.30;99.90;;;;;;5096531;28;20093;-89
2022/03/23 01:21:51;;;;;;;44.83;24.53;;;5.20;99.90;;;;;;5092968;28;20127;-89
2022/03/23 01:24:17;;;;;;;47.83;25.07;;;5.20;99.90;;;;;;5093542;28;20044;-87
2022/03/23 01:26:43;;;;;;;41.83;23.47;;;5.10;99.90;;;;;;5096995;28;20039;-88
2022/03/23 01:29:09;;;;;;;41.27;23.57;;;5.10;99.90;;;;;;5092412;28;20048;-88
2022/03/23 01:31:34;;;;;;;47.40;23.80;;;5.10;99.90;;;;;;5091503;28;20442;-88
2022/03/23 01:34:00;;;;;;;41.57;22.70;;;5.10;99.90;;;;;;5092735;28;20052;-89
2022/03/23 01:36:30;;;;;;;44.80;22.90;;;5.00;99.90;;;;;;5092021;28;20044;-89
2022/03/23 01:38:56;;;;;;;42.80;23.13;;;5.00;99.90;;;;;;5092930;28;20039;-88
2022/03/23 01:41:23;;;;;;;50.57;24.07;;;5.00;99.90;;;;;;5092065;28;20126;-88
2022/03/23 01:43:50;;;;;;;44.90;23.83;;;4.90;99.90;;;;;;5093979;28;20043;-89
2022/03/23 01:46:20;;;;;;;42.37;23.23;;;4.90;99.90;;;;;;5092866;28;20123;-89
2022/03/23 01:48:46;;;;;;;41.50;23.13;;;4.90;99.90;;;;;;5092674;28;20043;-88
2022/03/23 01:51:13;;;;;;;43.93;22.70;;;4.90;99.90;;;;;;5092882;28;20479;-88
2022/03/23 01:53:40;;;;;;;43.87;23.57;;;4.70;99.90;;;;;;5091743;28;20580;-89
2022/03/23 01:56:09;;;;;;;42.90;24.07;;;4.80;99.90;;;;;;5092472;28;20170;-89
2022/03/23 01:58:36;;;;;;;42.67;23.43;;;4.80;99.90;;;;;;5093272;28;20052;-88
2022/03/23 02:01:02;;;;;;;46.57;23.27;;;4.80;99.90;;;;;;5092630;28;20048;-89
2022/03/23 02:03:27;;;;;;;43.20;23.93;;;4.70;99.90;;;;;;5095105;28;20512;-89
2022/03/23 02:05:53;;;;;;;48.77;24.97;;;4.70;99.90;;;;;;5094302;28;20062;-88
2022/03/23 02:08:19;;;;;;;46.30;23.57;;;4.70;99.90;;;;;;5092530;28;20063;-88
2022/03/23 02:10:45;;;;;;;47.57;25.33;;;4.60;99.90;;;;;;5095094;28;20506;-87
2022/03/23 02:13:11;;;;;;;47.13;25.27;;;4.60;99.90;;;;;;5091749;28;20048;-88
2022/03/23 02:15:38;;;;;;;44.77;24.30;;;4.60;99.90;;;;;;5091367;28;20048;-88
2022/03/23 02:18:06;;;;;;;44.67;24.70;;;4.60;99.90;;;;;;5093315;28;20044;-88
2022/03/23 02:20:31;;;;;;;43.37;24.73;;;4.60;99.90;;;;;;5092870;28;20099;-87
2022/03/23 02:22:57;;;;;;;46.53;25.37;;;4.50;99.90;;;;;;5091250;28;20482;-88
2022/03/23 02:25:28;;;;;;;44.63;24.37;;;4.50;99.90;;;;;;5092853;28;20075;-88
2022/03/23 02:27:55;;;;;;;44.87;24.70;;;4.50;99.90;;;;;;5091728;28;20032;-88
2022/03/23 02:30:21;;;;;;;49.83;25.03;;;4.40;99.90;;;;;;5092963;28;20044;-88
2022/03/23 02:32:48;;;;;;;52.40;26.57;;;4.40;99.90;;;;;;5091469;28;20431;-88
2022/03/23 02:35:15;;;;;;;51.60;25.53;;;4.40;99.90;;;;;;5092290;28;20047;-88
2022/03/23 02:37:41;;;;;;;47.07;24.27;;;4.40;99.90;;;;;;5091474;28;20049;-87
2022/03/23 02:40:09;;;;;;;45.67;24.13;;;4.30;99.90;;;;;;5092805;28;20047;-88
2022/03/23 02:42:38;;;;;;;45.70;24.03;;;4.40;99.90;;;;;;5094861;28;20498;-88
2022/03/23 02:45:12;;;;;;;48.57;26.80;;;4.30;99.90;;;;;;5095715;28;20055;-88
2022/03/23 02:47:38;;;;;;;45.87;25.13;;;4.30;99.90;;;;;;5095951;28;20079;-88
2022/03/23 02:50:04;;;;;;;45.27;24.30;;;4.30;99.90;;;;;;5096363;28;20028;-88
2022/03/23 02:52:31;;;;;;;48.93;25.17;;;4.20;99.90;;;;;;5096599;28;20616;-88
2022/03/23 03:03:42;;;;;;;46.83;24.27;;;4.10;99.90;;;;;;5094104;28;20048;-87
2022/03/23 03:06:07;;;;;;;54.43;26.70;;;4.10;99.90;;;;;;5094256;28;20036;-87
2022/03/23 03:08:45;;;;;;;49.33;23.80;;;4.10;99.90;;;;;;5094609;28;20050;-87
2022/03/23 03:11:10;;;;;;;50.60;25.07;;;4.10;99.90;;;;;;5094636;28;20091;-88
2022/03/23 03:13:36;;;;;;;50.47;25.50;;;4.00;99.90;;;;;;5096991;28;20538;-88
2022/03/23 03:16:02;;;;;;;46.33;24.57;;;4.00;99.90;;;;;;5096420;28;20118;-87
2022/03/23 03:18:32;;;;;;;45.00;25.03;;;4.00;99.90;;;;;;5093600;28;20040;-87
2022/03/23 03:21:06;;;;;;;41.27;23.23;;;4.00;99.90;;;;;;5096271;28;20091;-87
2022/03/23 03:23:33;;;;;;;46.10;24.17;;;4.00;99.90;;;;;;5096050;28;20032;-87
2022/03/23 03:26:00;;;;;;;44.87;24.47;;;3.90;99.90;;;;;;5093949;28;20499;-87
2022/03/23 03:28:27;;;;;;;46.77;24.80;;;3.90;99.90;;;;;;5094211;28;20048;-87
2022/03/23 03:30:53;;;;;;;47.70;24.47;;;3.90;99.90;;;;;;5094534;28;20059;-87
2022/03/23 03:33:18;;;;;;;43.27;23.13;;;3.90;99.90;;;;;;5094401;28;20499;-87
2022/03/23 03:35:44;;;;;;;45.93;24.50;;;3.90;99.90;;;;;;5096165;28;20475;-87
2022/03/23 03:38:09;;;;;;;48.53;26.13;;;3.80;99.90;;;;;;5095396;28;20394;-87
2022/03/23 03:40:35;;;;;;;45.77;24.57;;;3.80;99.90;;;;;;5093956;28;20148;-87
2022/03/23 03:43:00;;;;;;;49.13;25.67;;;3.80;99.90;;;;;;5095838;28;20043;-87
2022/03/23 03:45:26;;;;;;;45.23;24.63;;;3.80;99.90;;;;;;5093837;28;20135;-87
2022/03/23 03:47:52;;;;;;;46.97;24.57;;;3.80;99.90;;;;;;5094520;28;20502;-88
2022/03/23 03:50:17;;;;;;;49.33;25.77;;;3.80;99.90;;;;;;5095668;28;20056;-88
2022/03/23 03:52:43;;;;;;;48.13;25.87;;;3.70;99.90;;;;;;5093267;28;20483;-87
2022/03/23 03:55:09;;;;;;;48.63;24.83;;;3.80;99.90;;;;;;5095809;28;20079;-87
2022/03/23 03:57:34;;;;;;;47.20;26.20;;;3.70;99.90;;;;;;5095221;28;20040;-87
2022/03/23 04:00:00;;;;;;;47.87;25.00;;;3.70;99.90;;;;;;5093411;28;20048;-88
2022/03/23 04:02:25;;;;;;;50.60;25.87;;;3.70;99.90;;;;;;5095304;28;20054;-87
2022/03/23 04:04:51;;;;;;;48.67;24.90;;;3.70;99.90;;;;;;5095061;28;20437;-87
2022/03/23 04:07:17;;;;;;;47.07;24.53;;;3.70;99.90;;;;;;5094177;28;20394;-87
2022/03/23 04:09:42;;;;;;;43.83;24.27;;;3.70;99.90;;;;;;5095027;28;20040;-87
2022/03/23 04:12:09;;;;;;;47.20;24.70;;;3.70;99.90;;;;;;5095035;28;20054;-88
2022/03/23 04:14:34;;;;;;;48.83;25.10;;;3.60;99.90;;;;;;5094897;28;20394;-88
2022/03/23 04:17:00;;;;;;;45.50;24.70;;;3.60;99.90;;;;;;5097690;28;20044;-88
2022/03/23 04:19:25;;;;;;;46.93;24.87;;;3.50;99.90;;;;;;5095027;28;20055;-87
2022/03/23 04:21:51;;;;;;;51.33;25.03;;;3.60;99.90;;;;;;5094633;28;20048;-88
2022/03/23 04:24:17;;;;;;;48.80;25.30;;;3.50;99.90;;;;;;5094747;28;20032;-87
2022/03/23 04:26:44;;;;;;;51.53;26.03;;;3.50;99.90;;;;;;5095295;28;20395;-88
2022/03/23 04:29:10;;;;;;;50.40;26.10;;;3.50;99.90;;;;;;5092976;28;20036;-88
2022/03/23 04:31:35;;;;;;;49.70;25.50;;;3.50;99.90;;;;;;5094641;28;20472;-89
2022/03/23 04:34:01;;;;;;;50.47;26.23;;;3.40;99.90;;;;;;5094728;28;20062;-88
2022/03/23 04:36:26;;;;;;;48.40;25.27;;;3.40;99.90;;;;;;5093639;28;20043;-88
2022/03/23 04:38:52;;;;;;;47.20;26.53;;;3.40;99.90;;;;;;5093782;28;20077;-88
2022/03/23 04:41:18;;;;;;;48.70;25.43;;;3.30;99.90;;;;;;5093608;28;20044;-87
2022/03/23 04:43:44;;;;;;;55.23;25.90;;;3.30;99.90;;;;;;5094307;28;20047;-87
2022/03/23 04:46:09;;;;;;;53.17;26.03;;;3.30;99.90;;;;;;5094597;28;20460;-88
2022/03/23 04:48:35;;;;;;;46.77;24.97;;;3.20;99.90;;;;;;5093331;28;20052;-88
2022/03/23 04:51:00;;;;;;;52.27;25.60;;;3.20;99.90;;;;;;5093150;28;20044;-88
2022/03/23 04:53:26;;;;;;;48.83;26.00;;;4.40;99.90;;;;;;5092924;28;20040;-88
2022/03/23 04:55:52;;;;;;;50.67;26.03;;;3.20;99.90;;;;;;5092425;28;20071;-88
2022/03/23 04:58:17;;;;;;;52.27;26.73;;;3.20;99.90;;;;;;5092617;28;20403;-88
2022/03/23 05:00:43;;;;;;;50.43;26.30;;;3.10;99.90;;;;;;5097378;28;20093;-88
2022/03/23 05:03:08;;;;;;;51.93;26.20;;;3.10;99.90;;;;;;5108429;28;20483;-87
2022/03/23 05:05:34;;;;;;;50.57;26.80;;;3.00;99.90;;;;;;5113508;28;20183;-88
2022/03/23 05:08:00;;;;;;;50.67;27.73;;;3.00;99.90;;;;;;5114396;28;20130;-88
2022/03/23 05:10:27;;;;;;;52.13;26.83;;;3.00;99.90;;;;;;5113671;28;20436;-87
2022/03/23 05:12:53;;;;;;;54.57;28.27;;;3.00;99.90;;;;;;5113298;28;20043;-88
2022/03/23 05:15:19;;;;;;;55.40;28.07;;;3.00;99.90;;;;;;5112497;28;20116;-88
2022/03/23 05:17:45;;;;;;;54.10;28.33;;;3.00;99.90;;;;;;5113161;28;20046;-89
2022/03/23 05:20:12;;;;;;;54.57;28.60;;;3.00;99.90;;;;;;5113233;28;20043;-88
2022/03/23 05:22:38;;;;;;;59.17;28.03;;;3.00;99.90;;;;;;5112850;28;20407;-87
2022/03/23 05:25:04;;;;;;;56.47;29.70;;;2.90;99.90;;;;;;5111966;28;20039;-88
2022/03/23 05:27:34;;;;;;;50.53;27.40;;;3.00;99.90;;;;;;5112840;28;20509;-89
2022/03/23 05:30:01;;;;;;;52.83;28.03;;;2.90;99.90;;;;;;5113610;28;20040;-88
2022/03/23 05:32:26;;;;;;;56.13;28.83;;;2.90;99.90;;;;;;5112727;28;20394;-88
2022/03/23 05:34:52;;;;;;;60.13;30.30;;;2.90;99.90;;;;;;5113897;28;20047;-88
2022/03/23 05:37:18;;;;;;;57.37;30.97;;;2.90;99.90;;;;;;5112274;28;20048;-88
2022/03/23 05:39:47;;;;;;;60.27;30.83;;;2.90;99.90;;;;;;5112014;28;20051;-88
2022/03/23 05:42:13;;;;;;;54.43;29.97;;;2.90;99.90;;;;;;5113794;28;20048;-88
2022/03/23 05:44:38;;;;;;;62.90;31.87;;;2.90;99.90;;;;;;5112919;28;20374;-88
2022/03/23 05:47:04;;;;;;;63.20;32.20;;;2.90;99.90;;;;;;5113413;28;20047;-88
2022/03/23 05:49:31;;;;;;;62.13;32.30;;;2.90;99.90;;;;;;5112320;28;20036;-88
2022/03/23 05:51:56;;;;;;;57.57;31.37;;;2.90;99.90;;;;;;5111524;28;20092;-88
2022/03/23 05:54:23;;;;;;;63.53;32.77;;;2.90;99.90;;;;;;5112173;28;20043;-87
2022/03/23 05:56:49;;;;;;;64.03;31.43;;;3.80;99.90;;;;;;5113364;28;20059;-87
2022/03/23 05:59:23;;;;;;;60.00;31.13;;;3.00;99.90;;;;;;5111750;28;20502;-88
2022/03/23 06:01:49;;;;;;;67.80;34.03;;;2.80;99.90;;;;;;5112144;28;20611;-88
2022/03/23 06:04:15;;;;;;;55.30;30.47;;;3.10;99.90;;;;;;5111540;28;20067;-88
2022/03/23 06:06:41;;;;;;;62.80;32.90;;;3.00;99.90;;;;;;5104525;28;20044;-88
2022/03/23 06:09:33;;;;;;;60.70;31.93;;;3.10;99.90;;;;;;5103093;28;20497;-88
2022/03/23 06:12:00;;;;;;;64.30;32.13;;;3.10;99.90;;;;;;5113505;28;20044;-88
2022/03/23 06:14:26;;;;;;;59.30;31.53;;;3.30;99.90;;;;;;5112676;28;20167;-88
2022/03/23 06:16:52;;;;;;;60.07;31.87;;;3.40;99.90;;;;;;5111700;28;20044;-88
2022/03/23 06:19:18;;;;;;;61.10;31.83;;;3.40;99.90;;;;;;5112226;28;20079;-88
2022/03/23 06:21:44;;;;;;;55.47;30.20;;;3.50;99.90;;;;;;5113909;28;20051;-88
2022/03/23 06:24:10;;;;;;;58.10;31.43;;;3.50;99.90;;;;;;5113578;28;20031;-88
2022/03/23 06:26:35;;;;;;;53.43;29.70;;;3.60;99.90;;;;;;5113343;28;20398;-90
2022/03/23 06:31:59;;;;;;;54.70;29.47;;;3.80;99.90;;;;;;5112127;28;20054;-89
2022/03/23 06:34:25;;;;;;;49.37;26.80;;;3.70;99.90;;;;;;5111557;28;20123;-88
2022/03/23 06:37:08;;;;;;;54.10;28.90;;;3.90;99.90;;;;;;5112965;28;20071;-89
2022/03/23 06:39:43;;;;;;;50.37;25.93;;;4.40;99.90;;;;;;5101699;28;20040;-91
2022/03/23 06:42:08;;;;;;;48.67;27.17;;;4.70;99.90;;;;;;5089530;28;20083;-87
2022/03/23 06:44:34;;;;;;;47.17;25.70;;;4.40;99.90;;;;;;5100711;28;20506;-86
2022/03/23 06:47:15;;;;;;;45.27;25.53;;;4.50;99.90;;;;;;5094389;28;20044;-92
2022/03/23 06:49:56;;;;;;;41.93;24.43;;;4.60;99.90;;;;;;5093759;28;20032;-92
2022/03/23 06:52:36;;;;;;;;;;;5.60;99.90;;;;;;5093234;28;20040;-90
2022/03/23 06:55:02;;;;;;;44.33;24.40;;;5.00;99.90;;;;;;5119715;22;19935;-93
2022/03/23 06:57:33;;;;;;;44.97;24.77;;;5.00;99.90;;;;;;5074601;28;20123;-94
2022/03/23 07:00:14;;;;;;;43.17;24.60;;;5.00;99.90;;;;;;5074235;28;20128;-95
2022/03/23 07:10:31;;;;;;;39.33;22.30;;;5.60;99.90;;;;;;5119025;22;20071;-91
2022/03/23 07:12:57;;;;;;;40.43;23.00;;;5.60;99.90;;;;;;5079532;22;20044;-91
2022/03/23 07:15:29;;;;;;;40.00;23.77;;;6.00;99.90;;;;;;5078249;22;20537;-96
2022/03/23 07:18:30;;;;;;;40.37;22.43;;;5.70;99.90;;;;;;5080993;28;20044;-95
2022/03/23 07:21:32;;;;;;;39.23;22.90;;;6.20;99.90;;;;;;5060220;28;20049;-96
2022/03/23 07:53:19;;;;;;;33.78;20.58;;;7.60;99.90;;;;;;5720787;23;20133;-88
2022/03/23 07:58:35;;;;;;;35.17;19.88;;;7.80;99.90;;;;;;5007452;22;20047;-91
2022/03/23 08:01:15;;;;;;;31.65;18.38;;;8.60;99.90;;;;;;4990926;22;20363;-94
2022/03/23 08:04:21;;;;;;;29.60;18.30;;;8.10;99.90;;;;;;4988501;28;20123;-96
2022/03/23 08:06:50;;;;;;;31.03;17.47;;;8.10;99.90;;;;;;4982798;28;20047;-87
2022/03/23 08:31:03;;;;;;;28.77;16.88;;;10.00;99.90;;;;;;5359659;22;20056;-92
2022/03/23 08:34:33;;;;;;;28.58;17.10;;;10.30;99.90;;;;;;4898842;29;20108;-93
2022/03/23 08:41:00;;;;;;;26.00;16.00;;;11.00;99.90;;;;;;4914331;29;20546;-93
2022/03/23 08:43:34;;;;;;;27.75;17.40;;;10.20;99.90;;;;;;4914362;29;20067;-88
2022/03/23 08:46:04;;;;;;;25.48;16.83;;;10.70;99.90;;;;;;4978981;28;20046;-88
2022/03/23 08:48:38;;;;;;;25.42;16.83;;;11.60;99.90;;;;;;4993840;28;20042;-87
2022/03/23 08:51:22;;;;;;;26.80;16.85;;;10.10;99.90;;;;;;4974955;28;20059;-88
2022/03/23 08:56:45;;;;;;;24.90;16.15;;;11.40;99.90;;;;;;5133032;22;20077;-90
2022/03/23 09:17:14;;;;;;;24.75;15.63;;;12.40;99.90;;;;;;5020222;28;20487;-90
2022/03/23 10:21:49;;;;;;;18.90;14.00;;;15.80;94.80;;;;;;5433525;23;20044;-94
2022/03/23 11:08:48;;;;;;;20.05;14.90;;;18.00;78.30;;;;;;5100062;23;20054;-91
2022/03/23 11:32:12;;;;;;;20.40;11.45;;;18.90;73.90;;;;;;5915736;23;20353;-93
2022/03/23 16:38:09;;;;;;;19.55;9.73;;;17.50;59.90;;;;;;4920096;23;20063;-91
2022/03/23 16:40:40;;;;;;;19.65;9.95;;;17.10;61.40;;;;;;4898375;29;20361;-91
2022/03/23 16:43:26;;;;;;;20.15;10.15;;;18.20;62.20;;;;;;4921176;29;20109;-92
2022/03/23 16:46:01;;;;;;;17.75;9.57;;;18.00;62.20;;;;;;4898576;29;20091;-91
2022/03/23 16:48:27;;;;;;;19.38;9.65;;;16.90;62.10;;;;;;4917086;29;20044;-86
2022/03/23 16:51:04;;;;;;;20.90;9.60;;;17.30;62.90;;;;;;4920710;29;20099;-92
2022/03/23 16:53:30;;;;;;;20.83;9.52;;;16.90;62.90;;;;;;4899308;29;20132;-90
2022/03/23 16:56:01;;;;;;;18.52;9.63;;;16.70;63.00;;;;;;4907830;29;20523;-90
2022/03/23 16:58:27;;;;;;;20.17;9.90;;;17.60;64.20;;;;;;4912544;29;20059;-91
2022/03/23 17:00:53;;;;;;;22.95;10.20;;;16.70;64.00;;;;;;4925508;29;20150;-94
2022/03/23 17:13:02;;;;;;;18.83;8.32;;;15.80;64.00;;;;;;4897677;29;20063;-92
2022/03/23 17:16:01;;;;;;;19.85;8.73;;;16.30;64.80;;;;;;4881621;29;20061;-93
2022/03/23 17:18:30;;;;;;;18.67;9.00;;;16.00;64.60;;;;;;4872088;29;20052;-92
2022/03/23 17:21:11;;;;;;;19.77;8.63;;;15.70;65.00;;;;;;4862187;29;20064;-91
2022/03/23 17:23:39;;;;;;;16.77;8.20;;;15.80;65.10;;;;;;4861908;29;20104;-89
2022/03/23 17:26:18;;;;;;;19.70;8.77;;;14.90;65.00;;;;;;4877949;29;20045;-92
2022/03/23 17:31:22;;;;;;;21.52;9.85;;;15.50;65.00;;;;;;4902892;23;20052;-92
2022/03/23 17:34:19;;;;;;;18.17;9.27;;;15.00;65.20;;;;;;4898406;29;20143;-94
2022/03/23 17:36:48;;;;;;;22.50;8.77;;;15.30;66.30;;;;;;4897567;29;20056;-93
2022/03/23 17:39:46;;;;;;;19.15;8.88;;;15.30;66.40;;;;;;4897874;29;20064;-94
2022/03/23 17:45:16;;;;;;;21.33;9.65;;;13.90;67.00;;;;;;4861640;29;20453;-92
2022/03/23 17:48:15;;;;;;;20.42;9.18;;;14.50;67.40;;;;;;4863226;29;20081;-91
2022/03/23 17:50:43;;;;;;;16.73;9.25;;;13.90;67.70;;;;;;4862502;29;20045;-93
2022/03/23 17:53:18;;;;;;;22.20;9.15;;;14.50;68.60;;;;;;4870029;29;20401;-92
2022/03/23 17:55:55;;;;;;;19.40;9.35;;;14.80;69.20;;;;;;4897629;29;20040;-92
2022/03/23 17:58:21;;;;;;;20.10;9.70;;;13.80;69.00;;;;;;5089532;23;20197;-86
2022/03/23 18:01:04;;;;;;;19.80;9.40;;;13.70;69.10;;;;;;4917002;29;20781;-86
2022/03/23 18:03:42;;;;;;;17.50;8.85;;;14.70;69.90;;;;;;4916084;29;20044;-86
2022/03/23 18:06:11;;;;;;;19.85;9.40;;;13.20;70.30;;;;;;4934967;29;20039;-86
2022/03/23 18:08:37;;;;;;;20.85;9.90;;;13.40;70.80;;;;;;4934749;29;20044;-86
2022/03/23 18:11:15;;;;;;;20.90;10.10;;;13.40;71.40;;;;;;4915851;29;20047;-85
2022/03/23 18:13:41;;;;;;;22.17;10.02;;;12.80;72.90;;;;;;4937581;29;20467;-85
2022/03/23 18:16:07;;;;;;;23.20;11.75;;;13.10;72.90;;;;;;4934351;29;20051;-85
2022/03/23 18:18:33;;;;;;;19.60;11.15;;;12.80;73.00;;;;;;4916154;29;20052;-85
2022/03/23 18:21:15;;;;;;;23.63;10.70;;;12.80;73.30;;;;;;4917548;29;20039;-85
2022/03/23 18:23:42;;;;;;;25.83;11.45;;;13.20;74.30;;;;;;4918131;29;20050;-86
2022/03/23 18:26:14;;;;;;;24.08;11.20;;;12.70;74.00;;;;;;4934080;29;20051;-86
2022/03/23 18:28:39;;;;;;;22.85;11.27;;;12.50;73.80;;;;;;4917515;29;20102;-88
2022/03/23 18:31:11;;;;;;;22.15;10.77;;;12.40;74.00;;;;;;4918182;29;20047;-88
2022/03/23 18:33:49;;;;;;;21.83;11.35;;;13.20;75.30;;;;;;4918637;29;20063;-89
2022/03/23 18:36:26;;;;;;;23.63;12.25;;;12.10;75.30;;;;;;4917332;29;20035;-86
2022/03/23 18:38:52;;;;;;;25.95;11.85;;;12.00;75.50;;;;;;4916206;29;20056;-87
2022/03/23 18:41:20;;;;;;;25.08;12.02;;;11.90;75.80;;;;;;4917201;29;20144;-85
2022/03/23 18:43:47;;;;;;;20.70;11.85;;;11.80;76.30;;;;;;4917765;29;20044;-85
2022/03/23 18:46:14;;;;;;;23.70;11.75;;;11.70;77.30;;;;;;4915389;29;20091;-85
2022/03/23 18:48:42;;;;;;;21.50;12.45;;;11.60;78.10;;;;;;4934838;29;20123;-86
2022/03/23 18:51:08;;;;;;;25.02;13.05;;;11.50;79.00;;;;;;4917897;29;20047;-85
2022/03/23 18:53:35;;;;;;;26.77;13.88;;;11.40;80.20;;;;;;4933750;29;20035;-85
2022/03/23 18:56:01;;;;;;;28.80;13.93;;;11.30;82.00;;;;;;4917235;29;20483;-85
2022/03/23 18:58:28;;;;;;;24.92;12.60;;;11.10;82.80;;;;;;4916932;29;20081;-86
2022/03/23 19:00:55;;;;;;;24.77;13.25;;;11.00;84.30;;;;;;4916915;29;20052;-87
2022/03/23 19:03:21;;;;;;;21.02;12.50;;;11.00;85.50;;;;;;4934397;29;20499;-85
2022/03/23 19:05:46;;;;;;;24.02;12.35;;;10.90;86.70;;;;;;4934924;29;20032;-86
2022/03/23 19:08:13;;;;;;;23.23;13.02;;;10.80;88.10;;;;;;4928325;23;20496;-85
2022/03/23 19:10:40;;;;;;;23.52;12.82;;;10.70;89.90;;;;;;4915777;29;20129;-86
2022/03/23 19:13:07;;;;;;;26.05;13.00;;;10.60;90.60;;;;;;4915625;29;20131;-86
2022/03/23 19:15:32;;;;;;;25.90;12.50;;;10.50;91.90;;;;;;4914727;29;20117;-86
2022/03/23 19:17:58;;;;;;;29.38;13.50;;;10.40;93.30;;;;;;4898910;29;20456;-86
2022/03/23 19:20:29;;;;;;;26.80;13.00;;;10.40;94.00;;;;;;4914647;29;20040;-86
2022/03/23 19:22:56;;;;;;;24.15;12.93;;;10.30;95.50;;;;;;4898685;29;20076;-85
2022/03/23 19:25:22;;;;;;;24.80;12.55;;;10.20;96.70;;;;;;4901539;29;20138;-85
2022/03/23 19:27:48;;;;;;;26.27;13.65;;;10.10;97.60;;;;;;4917158;29;20500;-85
2022/03/23 19:30:15;;;;;;;25.30;12.73;;;10.10;98.60;;;;;;4900943;29;20408;-86
2022/03/23 19:32:41;;;;;;;26.30;13.65;;;10.00;99.10;;;;;;4917987;29;20040;-84
2022/03/23 19:35:07;;;;;;;29.85;13.95;;;9.90;99.90;;;;;;4918111;29;20052;-84
2022/03/23 19:37:34;;;;;;;24.63;12.57;;;9.90;99.90;;;;;;4918752;29;20123;-85
2022/03/23 19:40:09;;;;;;;28.25;13.85;;;9.80;99.90;;;;;;4918896;29;20048;-86
2022/03/23 19:42:36;;;;;;;28.67;12.88;;;9.70;99.90;;;;;;4901646;29;20101;-89
2022/03/23 19:45:03;;;;;;;26.33;13.77;;;9.60;99.90;;;;;;4902148;29;20051;-86
2022/03/23 19:47:29;;;;;;;27.75;13.98;;;9.60;99.90;;;;;;4902150;29;20131;-86
2022/03/23 19:49:54;;;;;;;31.05;14.20;;;9.50;99.90;;;;;;4901371;29;20480;-88
2022/03/23 19:52:21;;;;;;;25.98;13.52;;;9.50;99.90;;;;;;4918890;29;20044;-86
2022/03/23 19:54:47;;;;;;;27.83;13.27;;;9.40;99.90;;;;;;4901753;29;20407;-88
2022/03/23 19:57:12;;;;;;;25.55;14.15;;;9.30;99.90;;;;;;4917692;29;20123;-86
2022/03/23 19:59:40;;;;;;;30.00;13.52;;;9.20;99.90;;;;;;4901521;29;20052;-86
2022/03/23 20:02:06;;;;;;;24.42;13.98;;;9.10;99.90;;;;;;4918529;29;20036;-86
2022/03/23 20:04:33;;;;;;;29.27;14.50;;;9.10;99.90;;;;;;4901092;29;20048;-86
2022/03/23 20:06:59;;;;;;;26.95;13.77;;;9.00;99.90;;;;;;4901549;29;20056;-85
2022/03/23 20:09:25;;;;;;;28.73;13.27;;;8.90;99.90;;;;;;4900119;29;20051;-86
2022/03/23 20:11:50;;;;;;;32.70;15.45;;;8.90;99.90;;;;;;4901282;29;20048;-86
2022/03/23 20:14:17;;;;;;;31.27;16.05;;;8.80;99.90;;;;;;4901448;29;20098;-86
2022/03/23 20:16:43;;;;;;;33.92;18.48;;;8.70;99.90;;;;;;4901213;29;20518;-86
2022/03/23 20:19:09;;;;;;;36.10;19.48;;;8.70;99.90;;;;;;4918990;29;20180;-86
2022/03/23 20:21:35;;;;;;;36.55;18.60;;;8.60;99.90;;;;;;4918284;29;20476;-86
2022/03/23 20:24:01;;;;;;;31.42;17.63;;;8.60;99.90;;;;;;4900730;29;20115;-86
2022/03/23 20:26:27;;;;;;;31.50;16.90;;;8.50;99.90;;;;;;4918413;29;20122;-86
2022/03/23 20:28:53;;;;;;;31.60;17.05;;;8.40;99.90;;;;;;4918377;29;20514;-86
2022/03/23 20:31:20;;;;;;;32.85;17.30;;;8.40;99.90;;;;;;4917917;29;20080;-86
2022/03/23 20:33:46;;;;;;;31.77;17.85;;;8.40;99.90;;;;;;4918520;29;20052;-87
2022/03/23 20:36:12;;;;;;;33.97;17.17;;;8.40;99.90;;;;;;4918398;29;20047;-87
2022/03/23 20:38:37;;;;;;;33.78;18.63;;;8.40;99.90;;;;;;4900811;29;20296;-87
2022/03/23 20:41:05;;;;;;;35.75;18.30;;;8.40;99.90;;;;;;4893471;29;20047;-87
2022/03/23 20:43:33;;;;;;;34.85;17.45;;;8.40;99.90;;;;;;4906337;29;20874;-87
2022/03/23 20:46:00;;;;;;;34.33;18.83;;;8.40;99.90;;;;;;4911528;29;20100;-87
2022/03/23 20:48:26;;;;;;;36.10;18.43;;;8.30;99.90;;;;;;4897151;29;20123;-86
2022/03/23 20:50:54;;;;;;;37.57;18.67;;;8.30;99.90;;;;;;4912206;29;20071;-86
2022/03/23 20:53:27;;;;;;;34.10;18.77;;;8.20;99.90;;;;;;4910767;29;20046;-86
2022/03/23 20:55:53;;;;;;;34.08;18.48;;;8.20;99.90;;;;;;4910111;29;20033;-87
2022/03/23 20:58:21;;;;;;;33.07;18.87;;;8.10;99.90;;;;;;4907229;29;20052;-87
2022/03/23 21:00:47;;;;;;;36.97;20.00;;;8.00;99.90;;;;;;4909104;29;20047;-86
2022/03/23 21:03:13;;;;;;;33.73;19.33;;;7.90;99.90;;;;;;4888475;29;20052;-86
2022/03/23 21:05:46;;;;;;;32.07;18.70;;;7.90;99.90;;;;;;4906082;29;20040;-87
2022/03/23 21:08:17;;;;;;;32.60;19.10;;;7.80;99.90;;;;;;4903840;29;20053;-88
2022/03/23 21:10:45;;;;;;;35.70;19.60;;;7.80;99.90;;;;;;4906007;29;20103;-87
2022/03/23 21:13:12;;;;;;;34.07;20.37;;;7.70;99.90;;;;;;4903904;29;20488;-87
2022/03/23 21:15:42;;;;;;;38.83;21.33;;;7.60;99.90;;;;;;4902501;29;20056;-87
2022/03/23 21:18:09;;;;;;;41.37;21.10;;;7.60;99.90;;;;;;4889022;29;20087;-87
2022/03/23 21:20:35;;;;;;;36.23;21.00;;;7.60;99.90;;;;;;4904352;29;20044;-87
2022/03/23 21:23:00;;;;;;;36.23;20.87;;;7.50;99.90;;;;;;4904361;29;20041;-87
2022/03/23 21:25:26;;;;;;;36.73;21.30;;;7.40;99.90;;;;;;4904396;29;20500;-86
2022/03/23 21:27:52;;;;;;;38.97;22.73;;;7.40;99.90;;;;;;4895999;29;20103;-86
2022/03/23 21:30:18;;;;;;;42.05;22.25;;;7.30;99.90;;;;;;4895483;29;20054;-86
2022/03/23 21:32:45;;;;;;;38.73;22.23;;;7.30;99.90;;;;;;4897983;29;20040;-85
2022/03/23 21:35:12;;;;;;;39.22;22.23;;;7.20;99.90;;;;;;4910785;29;20043;-86
2022/03/23 21:37:38;;;;;;;37.05;21.95;;;7.20;99.90;;;;;;4896813;29;20054;-85
2022/03/23 21:40:07;;;;;;;40.80;22.90;;;7.20;99.90;;;;;;4908936;29;20041;-90
2022/03/23 21:42:34;;;;;;;38.10;22.80;;;7.10;99.90;;;;;;4887068;29;20052;-88
2022/03/23 21:44:59;;;;;;;40.88;23.67;;;7.10;99.90;;;;;;4907286;29;20601;-89
2022/03/23 21:47:25;;;;;;;40.67;22.65;;;7.00;99.90;;;;;;4889917;29;20128;-86